Terminal Aerodrome Forecast
Issued by NWS

Home | Current Version | Previous Version | Graphics & Text | Print | Product List | Glossary On
Versions: 1 2 3 4 5 6 7 8 9 10 11 12 13 14 15
000
FTUS43 KIWX 281100
TAFSBN
TAF
KSBN 281120Z 2812/2912 22013KT 6SM -SHRA BKN035 OVC100
     FM281400 27014G22KT P6SM SCT040 BKN100
     FM281800 26016G23KT P6SM SKC
     FM290000 25009KT P6SM SCT250=

USA.gov is the U.S. government's official web portal to all federal, state and local government web resources and services.